sensor_id;sensor_type;location;lat;lon;timestamp;P1;durP1;ratioP1;P2;durP2;ratioP2
3417;SDS011;68007;51.312;12.372;2023-07-13T00:00:52;3.30;;;1.70;;
3417;SDS011;68007;51.312;12.372;2023-07-13T00:03:19;7.57;;;1.97;;
3417;SDS011;68007;51.312;12.372;2023-07-13T00:05:47;2.70;;;1.50;;
3417;SDS011;68007;51.312;12.372;2023-07-13T00:08:23;2.73;;;1.80;;
3417;SDS011;68007;51.312;12.372;2023-07-13T00:10:51;5.00;;;1.60;;
3417;SDS011;68007;51.312;12.372;2023-07-13T00:13:21;4.03;;;1.40;;
3417;SDS011;68007;51.312;12.372;2023-07-13T00:15:49;2.80;;;1.60;;
3417;SDS011;68007;51.312;12.372;2023-07-13T00:18:16;2.73;;;1.63;;
3417;SDS011;68007;51.312;12.372;2023-07-13T00:20:44;4.00;;;1.70;;
3417;SDS011;68007;51.312;12.372;2023-07-13T00:23:11;2.90;;;1.63;;
3417;SDS011;68007;51.312;12.372;2023-07-13T00:25:39;4.03;;;1.97;;
3417;SDS011;68007;51.312;12.372;2023-07-13T00:28:07;2.03;;;1.40;;
3417;SDS011;68007;51.312;12.372;2023-07-13T00:30:35;2.10;;;1.70;;
3417;SDS011;68007;51.312;12.372;2023-07-13T00:33:03;3.43;;;1.47;;
3417;SDS011;68007;51.312;12.372;2023-07-13T00:35:30;3.80;;;1.67;;
3417;SDS011;68007;51.312;12.372;2023-07-13T00:37:58;4.67;;;1.53;;
3417;SDS011;68007;51.312;12.372;2023-07-13T00:40:26;3.93;;;1.70;;
3417;SDS011;68007;51.312;12.372;2023-07-13T00:42:56;7.83;;;1.80;;
3417;SDS011;68007;51.312;12.372;2023-07-13T00:48:37;4.30;;;1.10;;
3417;SDS011;68007;51.312;12.372;2023-07-13T00:51:05;4.53;;;1.60;;
3417;SDS011;68007;51.312;12.372;2023-07-13T00:53:33;2.90;;;1.70;;
3417;SDS011;68007;51.312;12.372;2023-07-13T00:56:01;1.57;;;1.47;;
3417;SDS011;68007;51.312;12.372;2023-07-13T00:58:30;3.67;;;1.40;;
3417;SDS011;68007;51.312;12.372;2023-07-13T01:00:58;4.33;;;1.47;;
3417;SDS011;68007;51.312;12.372;2023-07-13T01:03:27;4.47;;;1.77;;
3417;SDS011;68007;51.312;12.372;2023-07-13T01:05:55;7.43;;;2.10;;
3417;SDS011;68007;51.312;12.372;2023-07-13T01:08:22;4.00;;;1.97;;
3417;SDS011;68007;51.312;12.372;2023-07-13T01:10:51;3.03;;;1.70;;
3417;SDS011;68007;51.312;12.372;2023-07-13T01:13:19;2.77;;;1.47;;
3417;SDS011;68007;51.312;12.372;2023-07-13T01:15:48;4.80;;;1.50;;
3417;SDS011;68007;51.312;12.372;2023-07-13T01:18:18;2.43;;;1.50;;
3417;SDS011;68007;51.312;12.372;2023-07-13T01:20:52;4.07;;;1.87;;
3417;SDS011;68007;51.312;12.372;2023-07-13T01:23:20;2.97;;;1.60;;
3417;SDS011;68007;51.312;12.372;2023-07-13T01:25:48;7.80;;;2.07;;
3417;SDS011;68007;51.312;12.372;2023-07-13T01:28:16;4.17;;;1.40;;
3417;SDS011;68007;51.312;12.372;2023-07-13T01:30:45;4.13;;;1.57;;
3417;SDS011;68007;51.312;12.372;2023-07-13T01:33:13;5.30;;;1.70;;
3417;SDS011;68007;51.312;12.372;2023-07-13T01:35:42;7.23;;;1.90;;
3417;SDS011;68007;51.312;12.372;2023-07-13T01:38:15;2.10;;;1.60;;
3417;SDS011;68007;51.312;12.372;2023-07-13T01:40:44;3.30;;;1.70;;
3417;SDS011;68007;51.312;12.372;2023-07-13T01:43:12;5.43;;;1.60;;
3417;SDS011;68007;51.312;12.372;2023-07-13T01:45:40;2.57;;;1.53;;
3417;SDS011;68007;51.312;12.372;2023-07-13T01:48:09;3.20;;;1.50;;
3417;SDS011;68007;51.312;12.372;2023-07-13T01:50:37;4.20;;;2.00;;
3417;SDS011;68007;51.312;12.372;2023-07-13T01:53:05;4.10;;;1.40;;
3417;SDS011;68007;51.312;12.372;2023-07-13T01:55:34;3.60;;;1.60;;
3417;SDS011;68007;51.312;12.372;2023-07-13T01:58:03;3.20;;;1.53;;
3417;SDS011;68007;51.312;12.372;2023-07-13T02:00:31;2.60;;;1.73;;
3417;SDS011;68007;51.312;12.372;2023-07-13T02:02:58;3.60;;;1.70;;
3417;SDS011;68007;51.312;12.372;2023-07-13T02:05:26;5.80;;;1.57;;
3417;SDS011;68007;51.312;12.372;2023-07-13T02:07:53;3.07;;;1.83;;
3417;SDS011;68007;51.312;12.372;2023-07-13T02:10:21;2.47;;;1.33;;
3417;SDS011;68007;51.312;12.372;2023-07-13T02:12:50;3.50;;;1.57;;
3417;SDS011;68007;51.312;12.372;2023-07-13T02:15:17;4.23;;;1.50;;
3417;SDS011;68007;51.312;12.372;2023-07-13T02:17:45;2.93;;;1.60;;
3417;SDS011;68007;51.312;12.372;2023-07-13T02:20:12;8.30;;;2.47;;
3417;SDS011;68007;51.312;12.372;2023-07-13T02:22:40;6.23;;;1.43;;
3417;SDS011;68007;51.312;12.372;2023-07-13T02:25:08;2.73;;;1.43;;
3417;SDS011;68007;51.312;12.372;2023-07-13T02:27:35;4.63;;;1.33;;
3417;SDS011;68007;51.312;12.372;2023-07-13T02:30:05;2.37;;;1.40;;
3417;SDS011;68007;51.312;12.372;2023-07-13T02:32:33;4.90;;;1.80;;
3417;SDS011;68007;51.312;12.372;2023-07-13T02:35:01;2.27;;;1.33;;
3417;SDS011;68007;51.312;12.372;2023-07-13T02:37:29;2.37;;;1.60;;
3417;SDS011;68007;51.312;12.372;2023-07-13T02:39:56;4.50;;;1.40;;
3417;SDS011;68007;51.312;12.372;2023-07-13T02:42:24;5.50;;;1.87;;
3417;SDS011;68007;51.312;12.372;2023-07-13T02:44:51;5.50;;;1.67;;
3417;SDS011;68007;51.312;12.372;2023-07-13T02:47:20;3.67;;;1.87;;
3417;SDS011;68007;51.312;12.372;2023-07-13T02:49:48;2.90;;;1.43;;
3417;SDS011;68007;51.312;12.372;2023-07-13T02:52:16;4.93;;;1.77;;
3417;SDS011;68007;51.312;12.372;2023-07-13T02:54:43;4.30;;;1.60;;
3417;SDS011;68007;51.312;12.372;2023-07-13T02:57:11;4.90;;;1.60;;
3417;SDS011;68007;51.312;12.372;2023-07-13T02:59:38;5.57;;;2.10;;
3417;SDS011;68007;51.312;12.372;2023-07-13T03:02:06;7.90;;;1.77;;
3417;SDS011;68007;51.312;12.372;2023-07-13T03:04:36;4.00;;;1.67;;
3417;SDS011;68007;51.312;12.372;2023-07-13T03:07:03;6.80;;;2.00;;
3417;SDS011;68007;51.312;12.372;2023-07-13T03:09:32;3.40;;;1.83;;
3417;SDS011;68007;51.312;12.372;2023-07-13T03:12:00;2.20;;;1.33;;
3417;SDS011;68007;51.312;12.372;2023-07-13T03:14:28;4.00;;;2.13;;
3417;SDS011;68007;51.312;12.372;2023-07-13T03:16:56;5.90;;;2.00;;
3417;SDS011;68007;51.312;12.372;2023-07-13T03:19:23;8.60;;;1.93;;
3417;SDS011;68007;51.312;12.372;2023-07-13T03:21:52;4.50;;;1.70;;
3417;SDS011;68007;51.312;12.372;2023-07-13T03:24:19;3.73;;;1.77;;
3417;SDS011;68007;51.312;12.372;2023-07-13T03:26:49;4.90;;;2.00;;
3417;SDS011;68007;51.312;12.372;2023-07-13T03:29:16;4.70;;;1.87;;
3417;SDS011;68007;51.312;12.372;2023-07-13T03:31:44;5.97;;;2.30;;
3417;SDS011;68007;51.312;12.372;2023-07-13T03:34:11;4.47;;;1.80;;
3417;SDS011;68007;51.312;12.372;2023-07-13T03:36:39;5.93;;;1.90;;
3417;SDS011;68007;51.312;12.372;2023-07-13T03:39:08;3.40;;;1.77;;
3417;SDS011;68007;51.312;12.372;2023-07-13T03:41:36;3.73;;;1.50;;
3417;SDS011;68007;51.312;12.372;2023-07-13T03:44:04;2.90;;;1.73;;
3417;SDS011;68007;51.312;12.372;2023-07-13T03:46:32;2.80;;;1.60;;
3417;SDS011;68007;51.312;12.372;2023-07-13T03:49:00;2.20;;;1.50;;
3417;SDS011;68007;51.312;12.372;2023-07-13T03:51:28;2.97;;;1.80;;
3417;SDS011;68007;51.312;12.372;2023-07-13T03:53:56;4.77;;;1.70;;
3417;SDS011;68007;51.312;12.372;2023-07-13T03:56:25;6.43;;;1.93;;
3417;SDS011;68007;51.312;12.372;2023-07-13T03:58:53;6.97;;;1.90;;
3417;SDS011;68007;51.312;12.372;2023-07-13T04:01:21;4.37;;;2.03;;
3417;SDS011;68007;51.312;12.372;2023-07-13T04:03:50;3.10;;;1.80;;
3417;SDS011;68007;51.312;12.372;2023-07-13T04:06:19;4.20;;;1.77;;
3417;SDS011;68007;51.312;12.372;2023-07-13T04:08:50;2.70;;;1.80;;
3417;SDS011;68007;51.312;12.372;2023-07-13T04:11:19;3.67;;;1.80;;
3417;SDS011;68007;51.312;12.372;2023-07-13T04:13:50;2.03;;;1.63;;
3417;SDS011;68007;51.312;12.372;2023-07-13T04:16:18;3.83;;;1.90;;
3417;SDS011;68007;51.312;12.372;2023-07-13T04:18:46;6.83;;;2.33;;
3417;SDS011;68007;51.312;12.372;2023-07-13T04:21:15;5.77;;;2.20;;
3417;SDS011;68007;51.312;12.372;2023-07-13T04:23:43;4.80;;;2.10;;
3417;SDS011;68007;51.312;12.372;2023-07-13T04:26:11;4.20;;;2.00;;
3417;SDS011;68007;51.312;12.372;2023-07-13T04:28:38;3.50;;;2.37;;
3417;SDS011;68007;51.312;12.372;2023-07-13T04:31:07;4.70;;;2.70;;
3417;SDS011;68007;51.312;12.372;2023-07-13T04:33:35;4.60;;;2.30;;
3417;SDS011;68007;51.312;12.372;2023-07-13T04:36:02;7.13;;;2.40;;
3417;SDS011;68007;51.312;12.372;2023-07-13T04:38:32;11.17;;;2.50;;
3417;SDS011;68007;51.312;12.372;2023-07-13T04:41:00;4.80;;;2.40;;
3417;SDS011;68007;51.312;12.372;2023-07-13T04:43:29;7.73;;;2.77;;
3417;SDS011;68007;51.312;12.372;2023-07-13T04:46:02;4.13;;;1.90;;
3417;SDS011;68007;51.312;12.372;2023-07-13T04:48:32;4.07;;;2.13;;
3417;SDS011;68007;51.312;12.372;2023-07-13T04:51:01;8.63;;;2.40;;
3417;SDS011;68007;51.312;12.372;2023-07-13T04:53:29;3.53;;;2.20;;
3417;SDS011;68007;51.312;12.372;2023-07-13T04:55:58;5.00;;;2.30;;
3417;SDS011;68007;51.312;12.372;2023-07-13T04:58:25;4.43;;;2.37;;
3417;SDS011;68007;51.312;12.372;2023-07-13T05:00:53;10.17;;;2.17;;
3417;SDS011;68007;51.312;12.372;2023-07-13T05:03:26;6.87;;;2.47;;
3417;SDS011;68007;51.312;12.372;2023-07-13T05:05:58;3.77;;;2.10;;
3417;SDS011;68007;51.312;12.372;2023-07-13T05:08:27;3.67;;;2.50;;
3417;SDS011;68007;51.312;12.372;2023-07-13T05:10:55;3.83;;;2.20;;
3417;SDS011;68007;51.312;12.372;2023-07-13T05:13:22;2.87;;;2.10;;
3417;SDS011;68007;51.312;12.372;2023-07-13T05:15:55;11.83;;;2.77;;
3417;SDS011;68007;51.312;12.372;2023-07-13T05:18:23;5.77;;;1.90;;
3417;SDS011;68007;51.312;12.372;2023-07-13T05:20:57;4.10;;;2.20;;
3417;SDS011;68007;51.312;12.372;2023-07-13T05:23:26;5.17;;;2.43;;
3417;SDS011;68007;51.312;12.372;2023-07-13T05:25:54;4.60;;;1.97;;
3417;SDS011;68007;51.312;12.372;2023-07-13T05:28:22;7.50;;;2.80;;
3417;SDS011;68007;51.312;12.372;2023-07-13T05:30:49;4.83;;;2.50;;
3417;SDS011;68007;51.312;12.372;2023-07-13T05:33:17;4.27;;;2.30;;
3417;SDS011;68007;51.312;12.372;2023-07-13T05:35:45;5.53;;;2.13;;
3417;SDS011;68007;51.312;12.372;2023-07-13T05:38:14;3.80;;;1.90;;
3417;SDS011;68007;51.312;12.372;2023-07-13T05:40:42;5.90;;;2.30;;
3417;SDS011;68007;51.312;12.372;2023-07-13T05:43:10;5.73;;;2.00;;
3417;SDS011;68007;51.312;12.372;2023-07-13T05:45:37;4.00;;;1.80;;
3417;SDS011;68007;51.312;12.372;2023-07-13T05:48:05;5.20;;;2.67;;
3417;SDS011;68007;51.312;12.372;2023-07-13T05:50:33;4.97;;;2.07;;
3417;SDS011;68007;51.312;12.372;2023-07-13T05:53:00;2.40;;;1.70;;
3417;SDS011;68007;51.312;12.372;2023-07-13T05:55:29;4.50;;;1.97;;
3417;SDS011;68007;51.312;12.372;2023-07-13T05:57:57;3.77;;;1.90;;
3417;SDS011;68007;51.312;12.372;2023-07-13T06:00:24;7.70;;;2.17;;
3417;SDS011;68007;51.312;12.372;2023-07-13T06:02:52;8.30;;;2.40;;
3417;SDS011;68007;51.312;12.372;2023-07-13T06:05:20;6.83;;;2.37;;
3417;SDS011;68007;51.312;12.372;2023-07-13T06:07:47;7.30;;;1.90;;
3417;SDS011;68007;51.312;12.372;2023-07-13T06:10:15;10.13;;;2.23;;
3417;SDS011;68007;51.312;12.372;2023-07-13T06:12:43;3.77;;;1.90;;
3417;SDS011;68007;51.312;12.372;2023-07-13T06:15:11;5.20;;;1.90;;
3417;SDS011;68007;51.312;12.372;2023-07-13T06:17:39;3.20;;;1.60;;
3417;SDS011;68007;51.312;12.372;2023-07-13T06:20:07;12.83;;;2.27;;
3417;SDS011;68007;51.312;12.372;2023-07-13T06:22:35;4.80;;;1.67;;
3417;SDS011;68007;51.312;12.372;2023-07-13T06:25:02;5.17;;;1.77;;
3417;SDS011;68007;51.312;12.372;2023-07-13T06:27:30;4.73;;;1.67;;
3417;SDS011;68007;51.312;12.372;2023-07-13T06:29:59;3.83;;;1.73;;
3417;SDS011;68007;51.312;12.372;2023-07-13T06:32:26;4.43;;;1.80;;
3417;SDS011;68007;51.312;12.372;2023-07-13T06:34:54;2.87;;;1.60;;
3417;SDS011;68007;51.312;12.372;2023-07-13T06:37:21;5.07;;;2.47;;
3417;SDS011;68007;51.312;12.372;2023-07-13T06:39:49;5.47;;;1.87;;
3417;SDS011;68007;51.312;12.372;2023-07-13T06:42:16;3.20;;;1.77;;
3417;SDS011;68007;51.312;12.372;2023-07-13T06:44:44;4.67;;;2.13;;
3417;SDS011;68007;51.312;12.372;2023-07-13T06:47:13;4.27;;;2.20;;
3417;SDS011;68007;51.312;12.372;2023-07-13T06:49:40;4.73;;;2.07;;
3417;SDS011;68007;51.312;12.372;2023-07-13T06:52:08;8.07;;;2.13;;
3417;SDS011;68007;51.312;12.372;2023-07-13T06:54:35;8.43;;;2.80;;
3417;SDS011;68007;51.312;12.372;2023-07-13T06:57:03;9.33;;;2.47;;
3417;SDS011;68007;51.312;12.372;2023-07-13T06:59:31;6.87;;;2.27;;
3417;SDS011;68007;51.312;12.372;2023-07-13T07:01:58;5.83;;;2.03;;
3417;SDS011;68007;51.312;12.372;2023-07-13T07:04:27;9.77;;;1.80;;
3417;SDS011;68007;51.312;12.372;2023-07-13T07:06:55;3.50;;;2.03;;
3417;SDS011;68007;51.312;12.372;2023-07-13T07:09:23;10.63;;;1.80;;
3417;SDS011;68007;51.312;12.372;2023-07-13T07:11:50;7.10;;;1.83;;
3417;SDS011;68007;51.312;12.372;2023-07-13T07:14:17;2.80;;;1.50;;
3417;SDS011;68007;51.312;12.372;2023-07-13T07:16:45;7.53;;;1.67;;
3417;SDS011;68007;51.312;12.372;2023-07-13T07:19:12;6.63;;;2.20;;
3417;SDS011;68007;51.312;12.372;2023-07-13T07:21:41;4.00;;;1.90;;
3417;SDS011;68007;51.312;12.372;2023-07-13T07:24:09;9.00;;;2.10;;
3417;SDS011;68007;51.312;12.372;2023-07-13T07:26:36;5.70;;;1.80;;
3417;SDS011;68007;51.312;12.372;2023-07-13T07:29:04;6.20;;;2.20;;
3417;SDS011;68007;51.312;12.372;2023-07-13T07:31:31;7.50;;;1.87;;
3417;SDS011;68007;51.312;12.372;2023-07-13T07:33:59;8.40;;;1.90;;
3417;SDS011;68007;51.312;12.372;2023-07-13T07:36:26;5.07;;;1.67;;
3417;SDS011;68007;51.312;12.372;2023-07-13T07:38:55;6.07;;;1.70;;
3417;SDS011;68007;51.312;12.372;2023-07-13T07:41:23;3.93;;;1.90;;
3417;SDS011;68007;51.312;12.372;2023-07-13T07:43:50;4.57;;;2.17;;
3417;SDS011;68007;51.312;12.372;2023-07-13T07:46:18;7.80;;;2.00;;
3417;SDS011;68007;51.312;12.372;2023-07-13T07:48:45;4.53;;;1.90;;
3417;SDS011;68007;51.312;12.372;2023-07-13T07:51:13;9.00;;;1.87;;
3417;SDS011;68007;51.312;12.372;2023-07-13T07:53:40;3.03;;;1.67;;
3417;SDS011;68007;51.312;12.372;2023-07-13T07:56:09;6.27;;;2.10;;
3417;SDS011;68007;51.312;12.372;2023-07-13T07:58:37;4.10;;;1.70;;
3417;SDS011;68007;51.312;12.372;2023-07-13T08:01:05;7.87;;;1.90;;
3417;SDS011;68007;51.312;12.372;2023-07-13T08:03:33;3.97;;;2.20;;
3417;SDS011;68007;51.312;12.372;2023-07-13T08:06:01;3.73;;;1.60;;
3417;SDS011;68007;51.312;12.372;2023-07-13T08:08:29;2.70;;;1.60;;
3417;SDS011;68007;51.312;12.372;2023-07-13T08:10:56;11.10;;;2.07;;
3417;SDS011;68007;51.312;12.372;2023-07-13T08:13:25;3.10;;;1.50;;
3417;SDS011;68007;51.312;12.372;2023-07-13T08:15:52;2.97;;;1.53;;
3417;SDS011;68007;51.312;12.372;2023-07-13T08:18:20;2.70;;;1.40;;
3417;SDS011;68007;51.312;12.372;2023-07-13T08:20:47;7.90;;;2.57;;
3417;SDS011;68007;51.312;12.372;2023-07-13T08:23:15;3.60;;;1.67;;
3417;SDS011;68007;51.312;12.372;2023-07-13T08:25:48;3.73;;;1.77;;
3417;SDS011;68007;51.312;12.372;2023-07-13T08:28:18;4.50;;;1.30;;
3417;SDS011;68007;51.312;12.372;2023-07-13T08:30:47;3.10;;;1.80;;
3417;SDS011;68007;51.312;12.372;2023-07-13T08:33:15;6.07;;;1.60;;
3417;SDS011;68007;51.312;12.372;2023-07-13T08:35:45;4.73;;;1.93;;
3417;SDS011;68007;51.312;12.372;2023-07-13T08:38:12;3.03;;;1.70;;
3417;SDS011;68007;51.312;12.372;2023-07-13T08:40:40;3.70;;;1.73;;
3417;SDS011;68007;51.312;12.372;2023-07-13T08:43:10;3.57;;;1.83;;
3417;SDS011;68007;51.312;12.372;2023-07-13T08:45:42;5.60;;;1.70;;
3417;SDS011;68007;51.312;12.372;2023-07-13T08:48:17;13.23;;;2.20;;
3417;SDS011;68007;51.312;12.372;2023-07-13T08:50:49;6.43;;;2.30;;
3417;SDS011;68007;51.312;12.372;2023-07-13T08:53:20;5.37;;;2.00;;
3417;SDS011;68007;51.312;12.372;2023-07-13T08:55:49;4.50;;;1.50;;
3417;SDS011;68007;51.312;12.372;2023-07-13T08:58:23;3.70;;;1.60;;
3417;SDS011;68007;51.312;12.372;2023-07-13T09:00:56;3.67;;;1.70;;
3417;SDS011;68007;51.312;12.372;2023-07-13T09:03:38;5.90;;;1.50;;
3417;SDS011;68007;51.312;12.372;2023-07-13T09:06:11;4.47;;;2.00;;
3417;SDS011;68007;51.312;12.372;2023-07-13T09:08:45;3.10;;;1.67;;
3417;SDS011;68007;51.312;12.372;2023-07-13T09:11:23;4.87;;;2.40;;
3417;SDS011;68007;51.312;12.372;2023-07-13T09:14:00;4.47;;;1.70;;
3417;SDS011;68007;51.312;12.372;2023-07-13T09:16:40;4.60;;;1.70;;
3417;SDS011;68007;51.312;12.372;2023-07-13T09:19:11;4.10;;;1.63;;
3417;SDS011;68007;51.312;12.372;2023-07-13T09:21:44;5.47;;;1.83;;
3417;SDS011;68007;51.312;12.372;2023-07-13T09:24:27;3.70;;;1.80;;
3417;SDS011;68007;51.312;12.372;2023-07-13T09:26:57;3.13;;;1.70;;
3417;SDS011;68007;51.312;12.372;2023-07-13T09:29:27;3.60;;;1.60;;
3417;SDS011;68007;51.312;12.372;2023-07-13T09:31:59;4.70;;;1.77;;
3417;SDS011;68007;51.312;12.372;2023-07-13T09:34:31;4.57;;;1.50;;
3417;SDS011;68007;51.312;12.372;2023-07-13T09:37:00;3.83;;;1.70;;
3417;SDS011;68007;51.312;12.372;2023-07-13T09:39:28;2.13;;;1.40;;
3417;SDS011;68007;51.312;12.372;2023-07-13T09:42:01;3.00;;;1.60;;
3417;SDS011;68007;51.312;12.372;2023-07-13T09:44:43;4.67;;;1.97;;
3417;SDS011;68007;51.312;12.372;2023-07-13T09:47:19;7.37;;;1.83;;
3417;SDS011;68007;51.312;12.372;2023-07-13T09:49:55;3.47;;;1.73;;
3417;SDS011;68007;51.312;12.372;2023-07-13T09:52:24;5.37;;;2.27;;
3417;SDS011;68007;51.312;12.372;2023-07-13T09:54:53;3.40;;;1.63;;
3417;SDS011;68007;51.312;12.372;2023-07-13T09:57:25;6.83;;;2.00;;
3417;SDS011;68007;51.312;12.372;2023-07-13T09:59:54;5.60;;;2.03;;
3417;SDS011;68007;51.312;12.372;2023-07-13T10:02:28;6.90;;;2.03;;
3417;SDS011;68007;51.312;12.372;2023-07-13T10:05:00;5.33;;;1.70;;
3417;SDS011;68007;51.312;12.372;2023-07-13T10:07:30;4.27;;;2.03;;
3417;SDS011;68007;51.312;12.372;2023-07-13T10:09:59;2.87;;;1.90;;
3417;SDS011;68007;51.312;12.372;2023-07-13T10:12:28;2.83;;;1.80;;
3417;SDS011;68007;51.312;12.372;2023-07-13T10:15:02;7.03;;;2.10;;
3417;SDS011;68007;51.312;12.372;2023-07-13T10:17:35;10.80;;;1.50;;
3417;SDS011;68007;51.312;12.372;2023-07-13T10:20:05;5.63;;;2.23;;
3417;SDS011;68007;51.312;12.372;2023-07-13T10:22:39;4.73;;;2.33;;
3417;SDS011;68007;51.312;12.372;2023-07-13T10:25:15;5.07;;;2.00;;
3417;SDS011;68007;51.312;12.372;2023-07-13T10:27:45;3.67;;;1.53;;
3417;SDS011;68007;51.312;12.372;2023-07-13T10:30:15;3.83;;;1.57;;
3417;SDS011;68007;51.312;12.372;2023-07-13T10:32:46;2.80;;;1.57;;
3417;SDS011;68007;51.312;12.372;2023-07-13T10:35:16;4.20;;;1.70;;
3417;SDS011;68007;51.312;12.372;2023-07-13T10:37:48;9.63;;;2.70;;
3417;SDS011;68007;51.312;12.372;2023-07-13T10:40:21;11.13;;;2.40;;
3417;SDS011;68007;51.312;12.372;2023-07-13T10:42:53;5.50;;;1.67;;
3417;SDS011;68007;51.312;12.372;2023-07-13T10:45:23;7.93;;;2.10;;
3417;SDS011;68007;51.312;12.372;2023-07-13T10:47:52;7.90;;;1.60;;
3417;SDS011;68007;51.312;12.372;2023-07-13T10:50:23;3.70;;;1.70;;
3417;SDS011;68007;51.312;12.372;2023-07-13T10:52:53;8.67;;;1.90;;
3417;SDS011;68007;51.312;12.372;2023-07-13T10:55:30;6.67;;;1.60;;
3417;SDS011;68007;51.312;12.372;2023-07-13T10:58:02;2.53;;;1.73;;
3417;SDS011;68007;51.312;12.372;2023-07-13T11:00:43;4.23;;;1.30;;
3417;SDS011;68007;51.312;12.372;2023-07-13T11:03:14;4.13;;;1.23;;
3417;SDS011;68007;51.312;12.372;2023-07-13T11:05:47;4.03;;;1.70;;
3417;SDS011;68007;51.312;12.372;2023-07-13T11:08:20;8.33;;;2.00;;
3417;SDS011;68007;51.312;12.372;2023-07-13T11:11:00;5.20;;;1.70;;
3417;SDS011;68007;51.312;12.372;2023-07-13T11:16:34;1.93;;;1.30;;
3417;SDS011;68007;51.312;12.372;2023-07-13T11:19:27;4.23;;;1.40;;
3417;SDS011;68007;51.312;12.372;2023-07-13T11:22:21;1.40;;;1.10;;
3417;SDS011;68007;51.312;12.372;2023-07-13T11:24:57;4.13;;;1.20;;
3417;SDS011;68007;51.312;12.372;2023-07-13T11:27:40;2.67;;;1.30;;
3417;SDS011;68007;51.312;12.372;2023-07-13T11:30:23;4.83;;;1.80;;
3417;SDS011;68007;51.312;12.372;2023-07-13T11:33:04;3.60;;;1.20;;
3417;SDS011;68007;51.312;12.372;2023-07-13T11:35:46;1.70;;;1.40;;
3417;SDS011;68007;51.312;12.372;2023-07-13T11:38:27;4.33;;;1.40;;
3417;SDS011;68007;51.312;12.372;2023-07-13T11:40:59;3.10;;;1.43;;
3417;SDS011;68007;51.312;12.372;2023-07-13T11:43:30;3.00;;;1.47;;
3417;SDS011;68007;51.312;12.372;2023-07-13T11:46:11;2.40;;;1.50;;
3417;SDS011;68007;51.312;12.372;2023-07-13T11:48:40;2.47;;;1.30;;
3417;SDS011;68007;51.312;12.372;2023-07-13T11:51:09;5.70;;;1.43;;
3417;SDS011;68007;51.312;12.372;2023-07-13T11:53:49;2.50;;;1.40;;
3417;SDS011;68007;51.312;12.372;2023-07-13T11:56:18;1.20;;;1.10;;
3417;SDS011;68007;51.312;12.372;2023-07-13T11:58:48;2.80;;;1.40;;
3417;SDS011;68007;51.312;12.372;2023-07-13T12:01:18;3.30;;;1.33;;
3417;SDS011;68007;51.312;12.372;2023-07-13T12:03:49;3.23;;;1.20;;
3417;SDS011;68007;51.312;12.372;2023-07-13T12:06:23;1.73;;;1.17;;
3417;SDS011;68007;51.312;12.372;2023-07-13T12:08:59;3.80;;;1.13;;
3417;SDS011;68007;51.312;12.372;2023-07-13T12:11:29;2.60;;;1.10;;
3417;SDS011;68007;51.312;12.372;2023-07-13T12:13:58;6.30;;;1.20;;
3417;SDS011;68007;51.312;12.372;2023-07-13T12:16:28;4.50;;;1.40;;
3417;SDS011;68007;51.312;12.372;2023-07-13T12:18:59;2.90;;;1.47;;
3417;SDS011;68007;51.312;12.372;2023-07-13T12:21:31;2.87;;;1.20;;
3417;SDS011;68007;51.312;12.372;2023-07-13T12:24:01;3.70;;;1.20;;
3417;SDS011;68007;51.312;12.372;2023-07-13T12:26:31;2.70;;;1.13;;
3417;SDS011;68007;51.312;12.372;2023-07-13T12:28:59;6.23;;;1.30;;
3417;SDS011;68007;51.312;12.372;2023-07-13T12:31:31;1.13;;;1.03;;
3417;SDS011;68007;51.312;12.372;2023-07-13T12:34:02;2.60;;;1.10;;
3417;SDS011;68007;51.312;12.372;2023-07-13T12:36:34;4.40;;;1.40;;
3417;SDS011;68007;51.312;12.372;2023-07-13T12:39:11;3.97;;;2.50;;
3417;SDS011;68007;51.312;12.372;2023-07-13T12:41:41;4.90;;;3.13;;
3417;SDS011;68007;51.312;12.372;2023-07-13T12:44:11;13.40;;;11.27;;
3417;SDS011;68007;51.312;12.372;2023-07-13T12:46:47;10.90;;;7.97;;
3417;SDS011;68007;51.312;12.372;2023-07-13T12:49:29;4.33;;;3.33;;
3417;SDS011;68007;51.312;12.372;2023-07-13T12:52:00;13.07;;;9.40;;
3417;SDS011;68007;51.312;12.372;2023-07-13T12:54:31;14.93;;;11.10;;
3417;SDS011;68007;51.312;12.372;2023-07-13T12:56:59;10.83;;;8.40;;
3417;SDS011;68007;51.312;12.372;2023-07-13T12:59:30;6.67;;;3.77;;
3417;SDS011;68007;51.312;12.372;2023-07-13T13:02:02;3.53;;;1.70;;
3417;SDS011;68007;51.312;12.372;2023-07-13T13:04:44;3.43;;;1.60;;
3417;SDS011;68007;51.312;12.372;2023-07-13T13:07:12;4.73;;;1.40;;
3417;SDS011;68007;51.312;12.372;2023-07-13T13:09:41;2.97;;;1.40;;
3417;SDS011;68007;51.312;12.372;2023-07-13T13:12:08;7.33;;;1.67;;
3417;SDS011;68007;51.312;12.372;2023-07-13T13:14:36;5.07;;;2.50;;
3417;SDS011;68007;51.312;12.372;2023-07-13T13:17:04;3.00;;;2.17;;
3417;SDS011;68007;51.312;12.372;2023-07-13T13:19:45;2.17;;;2.00;;
3417;SDS011;68007;51.312;12.372;2023-07-13T13:22:13;3.00;;;1.33;;
3417;SDS011;68007;51.312;12.372;2023-07-13T13:24:42;21.67;;;10.87;;
3417;SDS011;68007;51.312;12.372;2023-07-13T13:27:13;20.97;;;12.40;;
3417;SDS011;68007;51.312;12.372;2023-07-13T13:29:44;20.03;;;14.10;;
3417;SDS011;68007;51.312;12.372;2023-07-13T13:32:12;7.80;;;4.53;;
3417;SDS011;68007;51.312;12.372;2023-07-13T13:34:41;12.80;;;6.67;;
3417;SDS011;68007;51.312;12.372;2023-07-13T13:37:15;17.30;;;10.77;;
3417;SDS011;68007;51.312;12.372;2023-07-13T13:39:46;15.70;;;8.27;;
3417;SDS011;68007;51.312;12.372;2023-07-13T13:42:14;11.10;;;6.87;;
3417;SDS011;68007;51.312;12.372;2023-07-13T13:44:42;3.40;;;2.30;;
3417;SDS011;68007;51.312;12.372;2023-07-13T13:47:17;3.73;;;1.60;;
3417;SDS011;68007;51.312;12.372;2023-07-13T13:49:56;3.60;;;1.80;;
3417;SDS011;68007;51.312;12.372;2023-07-13T13:52:24;4.93;;;1.40;;
3417;SDS011;68007;51.312;12.372;2023-07-13T13:54:53;4.23;;;1.47;;
3417;SDS011;68007;51.312;12.372;2023-07-13T13:57:22;2.40;;;1.30;;
3417;SDS011;68007;51.312;12.372;2023-07-13T13:59:50;2.60;;;1.57;;
3417;SDS011;68007;51.312;12.372;2023-07-13T14:02:21;6.30;;;1.50;;
3417;SDS011;68007;51.312;12.372;2023-07-13T14:04:50;3.03;;;1.30;;
3417;SDS011;68007;51.312;12.372;2023-07-13T14:07:21;4.50;;;1.30;;
3417;SDS011;68007;51.312;12.372;2023-07-13T14:09:49;2.47;;;1.90;;
3417;SDS011;68007;51.312;12.372;2023-07-13T14:12:18;4.53;;;1.80;;
3417;SDS011;68007;51.312;12.372;2023-07-13T14:14:45;1.80;;;1.47;;
3417;SDS011;68007;51.312;12.372;2023-07-13T14:17:17;3.10;;;1.37;;
3417;SDS011;68007;51.312;12.372;2023-07-13T14:19:47;2.93;;;1.47;;
3417;SDS011;68007;51.312;12.372;2023-07-13T14:22:17;2.47;;;1.40;;
3417;SDS011;68007;51.312;12.372;2023-07-13T14:24:45;2.60;;;1.57;;
3417;SDS011;68007;51.312;12.372;2023-07-13T14:27:12;4.00;;;1.77;;
3417;SDS011;68007;51.312;12.372;2023-07-13T14:29:41;4.30;;;1.37;;
3417;SDS011;68007;51.312;12.372;2023-07-13T14:32:10;6.10;;;1.30;;
3417;SDS011;68007;51.312;12.372;2023-07-13T14:34:38;2.37;;;1.30;;
3417;SDS011;68007;51.312;12.372;2023-07-13T14:37:05;4.20;;;1.50;;
3417;SDS011;68007;51.312;12.372;2023-07-13T14:39:38;1.63;;;1.30;;
3417;SDS011;68007;51.312;12.372;2023-07-13T14:42:08;1.30;;;1.20;;
3417;SDS011;68007;51.312;12.372;2023-07-13T14:44:37;2.83;;;1.53;;
3417;SDS011;68007;51.312;12.372;2023-07-13T14:47:07;7.20;;;2.23;;
3417;SDS011;68007;51.312;12.372;2023-07-13T14:49:36;5.63;;;3.30;;
3417;SDS011;68007;51.312;12.372;2023-07-13T14:52:09;3.40;;;2.23;;
3417;SDS011;68007;51.312;12.372;2023-07-13T14:54:39;4.07;;;2.67;;
3417;SDS011;68007;51.312;12.372;2023-07-13T14:57:09;5.60;;;2.93;;
3417;SDS011;68007;51.312;12.372;2023-07-13T14:59:38;2.00;;;1.80;;
3417;SDS011;68007;51.312;12.372;2023-07-13T15:02:14;6.73;;;1.80;;
3417;SDS011;68007;51.312;12.372;2023-07-13T15:04:43;3.93;;;1.50;;
3417;SDS011;68007;51.312;12.372;2023-07-13T15:07:11;2.30;;;1.50;;